sensor_id;sensor_type;location;lat;lon;timestamp;temperature;humidity
45435;DHT22;31183;47.404;8.500;2023-08-20T00:00:21;25.50;80.80
45435;DHT22;31183;47.404;8.500;2023-08-20T00:02:52;25.50;80.80
45435;DHT22;31183;47.404;8.500;2023-08-20T00:05:22;25.50;80.90
45435;DHT22;31183;47.404;8.500;2023-08-20T00:07:48;25.50;80.90
45435;DHT22;31183;47.404;8.500;2023-08-20T00:10:16;25.40;80.90
45435;DHT22;31183;47.404;8.500;2023-08-20T00:12:43;25.50;81.10
45435;DHT22;31183;47.404;8.500;2023-08-20T00:15:09;25.50;81.30
45435;DHT22;31183;47.404;8.500;2023-08-20T00:17:39;25.40;81.40
45435;DHT22;31183;47.404;8.500;2023-08-20T00:20:08;25.40;81.50
45435;DHT22;31183;47.404;8.500;2023-08-20T00:22:37;25.40;81.60
45435;DHT22;31183;47.404;8.500;2023-08-20T00:25:04;25.30;81.70
45435;DHT22;31183;47.404;8.500;2023-08-20T00:27:32;25.30;81.80
45435;DHT22;31183;47.404;8.500;2023-08-20T00:29:59;25.30;81.80
45435;DHT22;31183;47.404;8.500;2023-08-20T00:32:26;25.30;81.90
45435;DHT22;31183;47.404;8.500;2023-08-20T00:34:53;25.30;81.90
45435;DHT22;31183;47.404;8.500;2023-08-20T00:37:20;25.30;82.00
45435;DHT22;31183;47.404;8.500;2023-08-20T00:39:46;25.30;82.10
45435;DHT22;31183;47.404;8.500;2023-08-20T00:42:13;25.20;82.10
45435;DHT22;31183;47.404;8.500;2023-08-20T00:44:42;25.20;82.30
45435;DHT22;31183;47.404;8.500;2023-08-20T00:47:13;25.20;82.50
45435;DHT22;31183;47.404;8.500;2023-08-20T00:49:40;25.20;82.40
45435;DHT22;31183;47.404;8.500;2023-08-20T00:52:09;25.10;82.50
45435;DHT22;31183;47.404;8.500;2023-08-20T00:54:39;25.00;82.70
45435;DHT22;31183;47.404;8.500;2023-08-20T00:57:06;25.00;83.00
45435;DHT22;31183;47.404;8.500;2023-08-20T00:59:33;24.90;83.20
45435;DHT22;31183;47.404;8.500;2023-08-20T01:02:00;24.90;83.40
45435;DHT22;31183;47.404;8.500;2023-08-20T01:04:29;24.90;83.50
45435;DHT22;31183;47.404;8.500;2023-08-20T01:07:26;24.90;83.70
45435;DHT22;31183;47.404;8.500;2023-08-20T01:12:28;24.90;83.90
45435;DHT22;31183;47.404;8.500;2023-08-20T01:14:55;24.90;83.90
45435;DHT22;31183;47.404;8.500;2023-08-20T01:17:22;24.90;84.10
45435;DHT22;31183;47.404;8.500;2023-08-20T01:19:49;24.90;84.30
45435;DHT22;31183;47.404;8.500;2023-08-20T01:25:18;24.80;84.50
45435;DHT22;31183;47.404;8.500;2023-08-20T01:28:04;24.80;84.70
45435;DHT22;31183;47.404;8.500;2023-08-20T01:30:35;24.80;84.90
45435;DHT22;31183;47.404;8.500;2023-08-20T01:33:02;24.70;85.00
45435;DHT22;31183;47.404;8.500;2023-08-20T01:35:29;24.70;85.10
45435;DHT22;31183;47.404;8.500;2023-08-20T01:37:55;24.70;85.30
45435;DHT22;31183;47.404;8.500;2023-08-20T01:40:22;24.70;85.50
45435;DHT22;31183;47.404;8.500;2023-08-20T01:42:49;24.70;85.60
45435;DHT22;31183;47.404;8.500;2023-08-20T01:45:15;24.60;85.60
45435;DHT22;31183;47.404;8.500;2023-08-20T01:47:42;24.60;85.70
45435;DHT22;31183;47.404;8.500;2023-08-20T01:50:10;24.60;85.70
45435;DHT22;31183;47.404;8.500;2023-08-20T01:52:36;24.60;85.80
45435;DHT22;31183;47.404;8.500;2023-08-20T01:55:04;24.60;85.90
45435;DHT22;31183;47.404;8.500;2023-08-20T01:57:30;24.60;85.80
45435;DHT22;31183;47.404;8.500;2023-08-20T01:59:58;24.60;85.80
45435;DHT22;31183;47.404;8.500;2023-08-20T02:02:25;24.60;85.90
45435;DHT22;31183;47.404;8.500;2023-08-20T02:04:52;24.60;86.10
45435;DHT22;31183;47.404;8.500;2023-08-20T02:07:19;24.50;86.20
45435;DHT22;31183;47.404;8.500;2023-08-20T02:09:45;24.50;86.30
45435;DHT22;31183;47.404;8.500;2023-08-20T02:12:12;24.50;86.30
45435;DHT22;31183;47.404;8.500;2023-08-20T02:14:38;24.60;86.60
45435;DHT22;31183;47.404;8.500;2023-08-20T02:17:06;24.50;86.60
45435;DHT22;31183;47.404;8.500;2023-08-20T02:19:33;24.50;86.80
45435;DHT22;31183;47.404;8.500;2023-08-20T02:21:59;24.40;86.90
45435;DHT22;31183;47.404;8.500;2023-08-20T02:24:26;24.40;87.00
45435;DHT22;31183;47.404;8.500;2023-08-20T02:26:53;24.40;87.10
45435;DHT22;31183;47.404;8.500;2023-08-20T02:29:20;24.40;87.20
45435;DHT22;31183;47.404;8.500;2023-08-20T02:31:46;24.30;87.40
45435;DHT22;31183;47.404;8.500;2023-08-20T02:34:13;24.30;87.60
45435;DHT22;31183;47.404;8.500;2023-08-20T02:36:39;24.20;87.70
45435;DHT22;31183;47.404;8.500;2023-08-20T02:39:06;24.20;87.70
45435;DHT22;31183;47.404;8.500;2023-08-20T02:41:35;24.30;87.80
45435;DHT22;31183;47.404;8.500;2023-08-20T02:44:03;24.30;87.70
45435;DHT22;31183;47.404;8.500;2023-08-20T02:46:29;24.30;87.70
45435;DHT22;31183;47.404;8.500;2023-08-20T02:48:56;24.30;87.60
45435;DHT22;31183;47.404;8.500;2023-08-20T02:51:23;24.30;87.60
45435;DHT22;31183;47.404;8.500;2023-08-20T02:53:50;24.30;87.60
45435;DHT22;31183;47.404;8.500;2023-08-20T02:56:16;24.30;87.70
45435;DHT22;31183;47.404;8.500;2023-08-20T02:58:43;24.30;87.90
45435;DHT22;31183;47.404;8.500;2023-08-20T03:01:21;24.20;87.90
45435;DHT22;31183;47.404;8.500;2023-08-20T03:03:47;24.20;88.00
45435;DHT22;31183;47.404;8.500;2023-08-20T03:06:14;24.20;88.20
45435;DHT22;31183;47.404;8.500;2023-08-20T03:08:41;24.10;88.30
45435;DHT22;31183;47.404;8.500;2023-08-20T03:11:08;24.10;88.50
45435;DHT22;31183;47.404;8.500;2023-08-20T03:13:34;24.10;88.50
45435;DHT22;31183;47.404;8.500;2023-08-20T03:16:01;24.10;88.70
45435;DHT22;31183;47.404;8.500;2023-08-20T03:18:29;24.00;88.80
45435;DHT22;31183;47.404;8.500;2023-08-20T03:20:56;24.00;88.90
45435;DHT22;31183;47.404;8.500;2023-08-20T03:23:23;23.90;88.60
45435;DHT22;31183;47.404;8.500;2023-08-20T03:25:50;23.90;89.20
45435;DHT22;31183;47.404;8.500;2023-08-20T03:28:18;23.90;89.30
45435;DHT22;31183;47.404;8.500;2023-08-20T03:30:45;23.90;89.40
45435;DHT22;31183;47.404;8.500;2023-08-20T03:33:12;23.80;89.60
45435;DHT22;31183;47.404;8.500;2023-08-20T03:35:39;23.80;89.70
45435;DHT22;31183;47.404;8.500;2023-08-20T03:38:05;23.80;89.80
45435;DHT22;31183;47.404;8.500;2023-08-20T03:40:32;23.80;89.90
45435;DHT22;31183;47.404;8.500;2023-08-20T03:42:59;23.80;89.90
45435;DHT22;31183;47.404;8.500;2023-08-20T03:45:26;23.80;90.00
45435;DHT22;31183;47.404;8.500;2023-08-20T03:47:53;23.80;90.00
45435;DHT22;31183;47.404;8.500;2023-08-20T03:50:19;23.80;90.10
45435;DHT22;31183;47.404;8.500;2023-08-20T03:52:46;23.70;90.00
45435;DHT22;31183;47.404;8.500;2023-08-20T03:55:13;23.70;90.00
45435;DHT22;31183;47.404;8.500;2023-08-20T03:57:39;23.70;90.00
45435;DHT22;31183;47.404;8.500;2023-08-20T04:00:06;23.70;90.00
45435;DHT22;31183;47.404;8.500;2023-08-20T04:02:35;23.70;90.00
45435;DHT22;31183;47.404;8.500;2023-08-20T04:05:03;23.70;90.10
45435;DHT22;31183;47.404;8.500;2023-08-20T04:07:30;23.70;90.10
45435;DHT22;31183;47.404;8.500;2023-08-20T04:09:56;23.70;90.10
45435;DHT22;31183;47.404;8.500;2023-08-20T04:12:23;23.80;90.10
45435;DHT22;31183;47.404;8.500;2023-08-20T04:14:49;23.80;90.10
45435;DHT22;31183;47.404;8.500;2023-08-20T04:17:16;23.80;90.10
45435;DHT22;31183;47.404;8.500;2023-08-20T04:19:43;23.80;90.10
45435;DHT22;31183;47.404;8.500;2023-08-20T04:22:09;23.80;90.10
45435;DHT22;31183;47.404;8.500;2023-08-20T04:24:36;23.80;90.10
45435;DHT22;31183;47.404;8.500;2023-08-20T04:27:03;23.70;90.10
45435;DHT22;31183;47.404;8.500;2023-08-20T04:29:29;23.70;90.20
45435;DHT22;31183;47.404;8.500;2023-08-20T04:31:56;23.60;90.20
45435;DHT22;31183;47.404;8.500;2023-08-20T04:34:23;23.60;90.30
45435;DHT22;31183;47.404;8.500;2023-08-20T04:36:49;23.60;90.10
45435;DHT22;31183;47.404;8.500;2023-08-20T04:39:17;23.60;90.10
45435;DHT22;31183;47.404;8.500;2023-08-20T04:41:44;23.60;90.10
45435;DHT22;31183;47.404;8.500;2023-08-20T04:44:10;23.70;90.10
45435;DHT22;31183;47.404;8.500;2023-08-20T04:46:37;23.70;90.10
45435;DHT22;31183;47.404;8.500;2023-08-20T04:49:04;23.70;90.10
45435;DHT22;31183;47.404;8.500;2023-08-20T04:51:30;23.70;90.20
45435;DHT22;31183;47.404;8.500;2023-08-20T04:53:57;23.70;90.20
45435;DHT22;31183;47.404;8.500;2023-08-20T04:56:23;23.70;90.20
45435;DHT22;31183;47.404;8.500;2023-08-20T04:58:50;23.70;90.20
45435;DHT22;31183;47.404;8.500;2023-08-20T05:01:17;23.70;90.30
45435;DHT22;31183;47.404;8.500;2023-08-20T05:03:44;23.70;90.40
45435;DHT22;31183;47.404;8.500;2023-08-20T05:06:11;23.70;90.50
45435;DHT22;31183;47.404;8.500;2023-08-20T05:08:37;23.70;90.50
45435;DHT22;31183;47.404;8.500;2023-08-20T05:11:04;23.60;90.80
45435;DHT22;31183;47.404;8.500;2023-08-20T05:13:31;23.50;91.00
45435;DHT22;31183;47.404;8.500;2023-08-20T05:15:57;23.50;91.10
45435;DHT22;31183;47.404;8.500;2023-08-20T05:18:24;23.50;91.20
45435;DHT22;31183;47.404;8.500;2023-08-20T05:20:50;23.60;91.20
45435;DHT22;31183;47.404;8.500;2023-08-20T05:23:17;23.80;91.10
45435;DHT22;31183;47.404;8.500;2023-08-20T05:25:44;23.90;90.90
45435;DHT22;31183;47.404;8.500;2023-08-20T05:28:10;24.10;90.80
45435;DHT22;31183;47.404;8.500;2023-08-20T05:30:37;24.20;90.70
45435;DHT22;31183;47.404;8.500;2023-08-20T05:33:04;24.30;90.60
45435;DHT22;31183;47.404;8.500;2023-08-20T05:35:30;24.40;90.50
45435;DHT22;31183;47.404;8.500;2023-08-20T05:37:57;24.50;90.40
45435;DHT22;31183;47.404;8.500;2023-08-20T05:40:24;24.60;90.40
45435;DHT22;31183;47.404;8.500;2023-08-20T05:42:50;24.80;90.40
45435;DHT22;31183;47.404;8.500;2023-08-20T05:45:18;24.80;90.30
45435;DHT22;31183;47.404;8.500;2023-08-20T05:47:44;25.00;90.30
45435;DHT22;31183;47.404;8.500;2023-08-20T05:50:11;25.10;90.20
45435;DHT22;31183;47.404;8.500;2023-08-20T05:52:38;25.20;90.10
45435;DHT22;31183;47.404;8.500;2023-08-20T05:55:04;25.20;90.10
45435;DHT22;31183;47.404;8.500;2023-08-20T05:57:31;25.20;90.10
45435;DHT22;31183;47.404;8.500;2023-08-20T05:59:58;25.20;90.20
45435;DHT22;31183;47.404;8.500;2023-08-20T06:02:24;25.20;90.20
45435;DHT22;31183;47.404;8.500;2023-08-20T06:04:51;25.20;90.30
45435;DHT22;31183;47.404;8.500;2023-08-20T06:07:18;25.10;90.30
45435;DHT22;31183;47.404;8.500;2023-08-20T06:09:44;25.00;90.30
45435;DHT22;31183;47.404;8.500;2023-08-20T06:12:11;25.00;90.40
45435;DHT22;31183;47.404;8.500;2023-08-20T06:14:38;25.00;90.40
45435;DHT22;31183;47.404;8.500;2023-08-20T06:17:05;24.90;90.40
45435;DHT22;31183;47.404;8.500;2023-08-20T06:19:31;25.00;90.50
45435;DHT22;31183;47.404;8.500;2023-08-20T06:21:58;25.10;90.50
45435;DHT22;31183;47.404;8.500;2023-08-20T06:24:25;25.30;90.40
45435;DHT22;31183;47.404;8.500;2023-08-20T06:26:52;25.40;90.20
45435;DHT22;31183;47.404;8.500;2023-08-20T06:29:19;25.60;90.20
45435;DHT22;31183;47.404;8.500;2023-08-20T06:31:45;25.70;90.10
45435;DHT22;31183;47.404;8.500;2023-08-20T06:34:12;25.90;90.00
45435;DHT22;31183;47.404;8.500;2023-08-20T06:36:39;26.00;89.20
45435;DHT22;31183;47.404;8.500;2023-08-20T06:39:05;26.10;89.10
45435;DHT22;31183;47.404;8.500;2023-08-20T06:41:33;26.30;88.70
45435;DHT22;31183;47.404;8.500;2023-08-20T06:43:59;26.50;88.30
45435;DHT22;31183;47.404;8.500;2023-08-20T06:46:26;26.80;87.60
45435;DHT22;31183;47.404;8.500;2023-08-20T06:48:53;27.10;86.30
45435;DHT22;31183;47.404;8.500;2023-08-20T06:51:20;27.40;86.10
45435;DHT22;31183;47.404;8.500;2023-08-20T06:53:48;27.90;85.10
45435;DHT22;31183;47.404;8.500;2023-08-20T06:56:15;28.30;84.00
45435;DHT22;31183;47.404;8.500;2023-08-20T06:58:42;28.60;82.80
45435;DHT22;31183;47.404;8.500;2023-08-20T07:01:09;28.80;82.60
45435;DHT22;31183;47.404;8.500;2023-08-20T07:03:37;28.90;82.30
45435;DHT22;31183;47.404;8.500;2023-08-20T07:06:04;29.00;82.00
45435;DHT22;31183;47.404;8.500;2023-08-20T07:08:31;29.00;81.50
45435;DHT22;31183;47.404;8.500;2023-08-20T07:10:58;29.00;81.50
45435;DHT22;31183;47.404;8.500;2023-08-20T07:13:25;29.00;81.40
45435;DHT22;31183;47.404;8.500;2023-08-20T07:15:52;29.00;81.80
45435;DHT22;31183;47.404;8.500;2023-08-20T07:18:19;28.90;81.40
45435;DHT22;31183;47.404;8.500;2023-08-20T07:20:45;28.80;81.50
45435;DHT22;31183;47.404;8.500;2023-08-20T07:23:12;28.60;81.60
45435;DHT22;31183;47.404;8.500;2023-08-20T07:25:40;28.50;81.60
45435;DHT22;31183;47.404;8.500;2023-08-20T07:28:08;28.40;82.00
45435;DHT22;31183;47.404;8.500;2023-08-20T07:30:35;28.40;82.20
45435;DHT22;31183;47.404;8.500;2023-08-20T07:33:03;28.40;82.30
45435;DHT22;31183;47.404;8.500;2023-08-20T07:35:32;28.40;82.10
45435;DHT22;31183;47.404;8.500;2023-08-20T07:37:59;28.40;81.70
45435;DHT22;31183;47.404;8.500;2023-08-20T07:40:25;28.50;82.10
45435;DHT22;31183;47.404;8.500;2023-08-20T07:42:52;28.50;82.00
45435;DHT22;31183;47.404;8.500;2023-08-20T07:45:19;28.60;82.20
45435;DHT22;31183;47.404;8.500;2023-08-20T07:47:45;28.60;81.70
45435;DHT22;31183;47.404;8.500;2023-08-20T07:50:12;28.50;81.10
45435;DHT22;31183;47.404;8.500;2023-08-20T07:52:39;28.50;80.70
45435;DHT22;31183;47.404;8.500;2023-08-20T07:55:07;28.50;80.70
45435;DHT22;31183;47.404;8.500;2023-08-20T07:57:33;28.40;81.10
45435;DHT22;31183;47.404;8.500;2023-08-20T08:00:00;28.40;80.40
45435;DHT22;31183;47.404;8.500;2023-08-20T08:02:30;28.40;81.20
45435;DHT22;31183;47.404;8.500;2023-08-20T08:04:57;28.30;81.30
45435;DHT22;31183;47.404;8.500;2023-08-20T08:07:23;28.30;81.50
45435;DHT22;31183;47.404;8.500;2023-08-20T08:09:50;28.20;81.40
45435;DHT22;31183;47.404;8.500;2023-08-20T08:12:17;28.20;81.60
45435;DHT22;31183;47.404;8.500;2023-08-20T08:14:43;28.20;81.70
45435;DHT22;31183;47.404;8.500;2023-08-20T08:17:10;28.20;81.40
45435;DHT22;31183;47.404;8.500;2023-08-20T08:19:36;28.20;81.10
45435;DHT22;31183;47.404;8.500;2023-08-20T08:22:03;28.20;81.10
45435;DHT22;31183;47.404;8.500;2023-08-20T08:24:30;28.30;81.20
45435;DHT22;31183;47.404;8.500;2023-08-20T08:26:56;28.40;81.20
45435;DHT22;31183;47.404;8.500;2023-08-20T08:29:23;28.40;81.60
45435;DHT22;31183;47.404;8.500;2023-08-20T08:31:50;28.40;81.60
45435;DHT22;31183;47.404;8.500;2023-08-20T08:34:16;28.30;81.40
45435;DHT22;31183;47.404;8.500;2023-08-20T08:36:44;28.30;81.70
45435;DHT22;31183;47.404;8.500;2023-08-20T08:39:11;28.30;81.80
45435;DHT22;31183;47.404;8.500;2023-08-20T08:41:38;28.30;81.80
45435;DHT22;31183;47.404;8.500;2023-08-20T08:44:08;28.30;81.80
45435;DHT22;31183;47.404;8.500;2023-08-20T08:46:36;28.30;81.20
45435;DHT22;31183;47.404;8.500;2023-08-20T08:49:04;28.20;81.10
45435;DHT22;31183;47.404;8.500;2023-08-20T08:51:31;28.20;81.30
45435;DHT22;31183;47.404;8.500;2023-08-20T08:54:00;28.20;80.90
45435;DHT22;31183;47.404;8.500;2023-08-20T08:56:27;28.20;81.50
45435;DHT22;31183;47.404;8.500;2023-08-20T08:58:54;28.10;81.50
45435;DHT22;31183;47.404;8.500;2023-08-20T09:01:21;28.10;81.40
45435;DHT22;31183;47.404;8.500;2023-08-20T09:03:47;28.10;81.70
45435;DHT22;31183;47.404;8.500;2023-08-20T09:06:14;28.10;81.80
45435;DHT22;31183;47.404;8.500;2023-08-20T09:08:41;28.00;81.90
45435;DHT22;31183;47.404;8.500;2023-08-20T09:11:08;28.00;82.00
45435;DHT22;31183;47.404;8.500;2023-08-20T09:13:40;28.00;82.40
45435;DHT22;31183;47.404;8.500;2023-08-20T09:16:11;28.10;82.90
45435;DHT22;31183;47.404;8.500;2023-08-20T09:18:44;28.10;82.70
45435;DHT22;31183;47.404;8.500;2023-08-20T09:21:12;28.20;83.00
45435;DHT22;31183;47.404;8.500;2023-08-20T09:23:40;28.20;83.30
45435;DHT22;31183;47.404;8.500;2023-08-20T09:26:11;28.20;83.40
45435;DHT22;31183;47.404;8.500;2023-08-20T09:28:42;28.20;83.50
45435;DHT22;31183;47.404;8.500;2023-08-20T09:31:09;28.20;83.70
45435;DHT22;31183;47.404;8.500;2023-08-20T09:33:51;28.20;83.60
45435;DHT22;31183;47.404;8.500;2023-08-20T09:36:18;28.30;83.40
45435;DHT22;31183;47.404;8.500;2023-08-20T09:38:45;28.20;83.60
45435;DHT22;31183;47.404;8.500;2023-08-20T09:41:16;28.20;83.80
45435;DHT22;31183;47.404;8.500;2023-08-20T09:43:44;28.20;83.50
45435;DHT22;31183;47.404;8.500;2023-08-20T09:46:13;28.20;83.70
45435;DHT22;31183;47.404;8.500;2023-08-20T09:48:42;28.20;83.70
45435;DHT22;31183;47.404;8.500;2023-08-20T09:51:12;28.20;84.00
45435;DHT22;31183;47.404;8.500;2023-08-20T09:53:48;28.20;84.20
45435;DHT22;31183;47.404;8.500;2023-08-20T09:56:24;28.20;84.10
45435;DHT22;31183;47.404;8.500;2023-08-20T09:58:53;28.20;84.00
45435;DHT22;31183;47.404;8.500;2023-08-20T10:01:20;28.20;84.30
45435;DHT22;31183;47.404;8.500;2023-08-20T10:03:47;28.20;84.40
45435;DHT22;31183;47.404;8.500;2023-08-20T10:06:14;28.20;83.80
45435;DHT22;31183;47.404;8.500;2023-08-20T10:08:41;28.20;83.90
45435;DHT22;31183;47.404;8.500;2023-08-20T10:11:08;28.20;83.70
45435;DHT22;31183;47.404;8.500;2023-08-20T10:13:35;28.30;84.10
45435;DHT22;31183;47.404;8.500;2023-08-20T10:16:03;28.30;83.90
45435;DHT22;31183;47.404;8.500;2023-08-20T10:18:30;28.30;83.50
45435;DHT22;31183;47.404;8.500;2023-08-20T10:20:58;28.30;83.30
45435;DHT22;31183;47.404;8.500;2023-08-20T10:23:29;28.30;83.20
45435;DHT22;31183;47.404;8.500;2023-08-20T10:26:07;28.40;82.80
45435;DHT22;31183;47.404;8.500;2023-08-20T10:28:33;28.40;82.70
45435;DHT22;31183;47.404;8.500;2023-08-20T10:31:10;28.40;82.30
45435;DHT22;31183;47.404;8.500;2023-08-20T10:33:48;28.40;82.50
45435;DHT22;31183;47.404;8.500;2023-08-20T10:36:20;28.40;82.70
45435;DHT22;31183;47.404;8.500;2023-08-20T10:38:55;28.40;82.70
45435;DHT22;31183;47.404;8.500;2023-08-20T10:41:29;28.40;82.80
45435;DHT22;31183;47.404;8.500;2023-08-20T10:44:00;28.40;82.70
45435;DHT22;31183;47.404;8.500;2023-08-20T10:46:29;28.40;81.70
45435;DHT22;31183;47.404;8.500;2023-08-20T10:49:02;28.50;81.50
45435;DHT22;31183;47.404;8.500;2023-08-20T10:51:34;28.50;82.10
45435;DHT22;31183;47.404;8.500;2023-08-20T10:59:16;28.40;82.30
45435;DHT22;31183;47.404;8.500;2023-08-20T11:01:48;28.40;82.80
45435;DHT22;31183;47.404;8.500;2023-08-20T11:04:15;28.40;82.80
45435;DHT22;31183;47.404;8.500;2023-08-20T11:06:43;28.40;83.10
45435;DHT22;31183;47.404;8.500;2023-08-20T11:09:10;28.40;83.40
45435;DHT22;31183;47.404;8.500;2023-08-20T11:11:41;28.40;83.60
45435;DHT22;31183;47.404;8.500;2023-08-20T11:14:15;28.30;83.40
45435;DHT22;31183;47.404;8.500;2023-08-20T11:16:42;28.30;83.20
45435;DHT22;31183;47.404;8.500;2023-08-20T11:19:11;28.30;83.30
45435;DHT22;31183;47.404;8.500;2023-08-20T11:21:39;28.30;83.10
45435;DHT22;31183;47.404;8.500;2023-08-20T11:24:07;28.40;83.10
45435;DHT22;31183;47.404;8.500;2023-08-20T11:26:34;28.40;83.00
45435;DHT22;31183;47.404;8.500;2023-08-20T11:29:06;28.40;83.30
45435;DHT22;31183;47.404;8.500;2023-08-20T11:31:33;28.30;83.40
45435;DHT22;31183;47.404;8.500;2023-08-20T11:34:02;28.20;83.60
45435;DHT22;31183;47.404;8.500;2023-08-20T11:36:29;28.20;84.20
45435;DHT22;31183;47.404;8.500;2023-08-20T11:38:55;28.20;84.00
45435;DHT22;31183;47.404;8.500;2023-08-20T11:41:24;28.20;83.50
45435;DHT22;31183;47.404;8.500;2023-08-20T11:43:54;28.20;83.10
45435;DHT22;31183;47.404;8.500;2023-08-20T11:46:22;28.20;83.30
45435;DHT22;31183;47.404;8.500;2023-08-20T11:49:06;28.20;83.60
45435;DHT22;31183;47.404;8.500;2023-08-20T11:51:37;28.10;83.40
45435;DHT22;31183;47.404;8.500;2023-08-20T11:54:05;28.10;83.90
45435;DHT22;31183;47.404;8.500;2023-08-20T11:56:33;28.10;84.20
45435;DHT22;31183;47.404;8.500;2023-08-20T11:59:01;28.00;85.20
45435;DHT22;31183;47.404;8.500;2023-08-20T12:01:31;28.00;84.90
45435;DHT22;31183;47.404;8.500;2023-08-20T12:04:08;27.90;84.80
45435;DHT22;31183;47.404;8.500;2023-08-20T12:06:37;27.90;84.70
45435;DHT22;31183;47.404;8.500;2023-08-20T12:09:21;27.90;85.10
45435;DHT22;31183;47.404;8.500;2023-08-20T12:11:52;27.90;85.00
45435;DHT22;31183;47.404;8.500;2023-08-20T12:14:21;27.80;85.50
45435;DHT22;31183;47.404;8.500;2023-08-20T12:16:48;27.80;85.80
45435;DHT22;31183;47.404;8.500;2023-08-20T12:19:17;27.80;86.00
45435;DHT22;31183;47.404;8.500;2023-08-20T12:21:44;27.80;86.00
45435;DHT22;31183;47.404;8.500;2023-08-20T12:24:12;27.80;86.30
45435;DHT22;31183;47.404;8.500;2023-08-20T12:26:39;27.70;86.00
45435;DHT22;31183;47.404;8.500;2023-08-20T12:29:06;27.80;86.20
45435;DHT22;31183;47.404;8.500;2023-08-20T12:31:33;27.80;85.60
45435;DHT22;31183;47.404;8.500;2023-08-20T12:34:00;27.80;84.00
45435;DHT22;31183;47.404;8.500;2023-08-20T12:36:28;27.80;83.60
45435;DHT22;31183;47.404;8.500;2023-08-20T12:38:55;27.80;83.50
45435;DHT22;31183;47.404;8.500;2023-08-20T12:41:22;27.80;82.70
45435;DHT22;31183;47.404;8.500;2023-08-20T12:43:49;27.80;82.50
45435;DHT22;31183;47.404;8.500;2023-08-20T12:46:16;27.80;82.90
45435;DHT22;31183;47.404;8.500;2023-08-20T12:48:43;27.80;83.50
45435;DHT22;31183;47.404;8.500;2023-08-20T12:51:10;27.80;83.30
45435;DHT22;31183;47.404;8.500;2023-08-20T12:53:40;27.80;83.80
45435;DHT22;31183;47.404;8.500;2023-08-20T12:56:06;27.80;82.50
45435;DHT22;31183;47.404;8.500;2023-08-20T12:58:33;27.80;83.00
45435;DHT22;31183;47.404;8.500;2023-08-20T13:01:00;27.80;83.30
45435;DHT22;31183;47.404;8.500;2023-08-20T13:03:27;27.70;83.50
45435;DHT22;31183;47.404;8.500;2023-08-20T13:05:55;27.70;83.30
45435;DHT22;31183;47.404;8.500;2023-08-20T13:08:25;27.70;82.60
45435;DHT22;31183;47.404;8.500;2023-08-20T13:10:56;27.70;82.60
45435;DHT22;31183;47.404;8.500;2023-08-20T13:13:24;27.70;82.80
45435;DHT22;31183;47.404;8.500;2023-08-20T13:15:52;27.70;83.00
45435;DHT22;31183;47.404;8.500;2023-08-20T13:18:19;27.70;83.20
45435;DHT22;31183;47.404;8.500;2023-08-20T13:20:54;27.70;83.30
45435;DHT22;31183;47.404;8.500;2023-08-20T13:23:20;27.70;83.40
45435;DHT22;31183;47.404;8.500;2023-08-20T13:25:47;27.70;83.60
45435;DHT22;31183;47.404;8.500;2023-08-20T13:28:14;27.70;83.80
45435;DHT22;31183;47.404;8.500;2023-08-20T13:30:40;27.70;84.00
45435;DHT22;31183;47.404;8.500;2023-08-20T13:33:07;27.70;82.90
45435;DHT22;31183;47.404;8.500;2023-08-20T13:35:34;27.70;83.20
45435;DHT22;31183;47.404;8.500;2023-08-20T13:38:01;27.70;83.30
45435;DHT22;31183;47.404;8.500;2023-08-20T13:40:27;27.70;83.20
45435;DHT22;31183;47.404;8.500;2023-08-20T13:42:54;27.70;81.50
45435;DHT22;31183;47.404;8.500;2023-08-20T13:45:21;27.70;81.80
45435;DHT22;31183;47.404;8.500;2023-08-20T13:47:48;27.70;81.20
45435;DHT22;31183;47.404;8.500;2023-08-20T13:50:15;27.70;81.40
45435;DHT22;31183;47.404;8.500;2023-08-20T13:52:42;27.70;81.80
45435;DHT22;31183;47.404;8.500;2023-08-20T13:55:09;27.70;82.30
45435;DHT22;31183;47.404;8.500;2023-08-20T13:57:36;27.70;82.40
45435;DHT22;31183;47.404;8.500;2023-08-20T14:00:04;27.70;81.90
45435;DHT22;31183;47.404;8.500;2023-08-20T14:02:35;27.80;79.90
45435;DHT22;31183;47.404;8.500;2023-08-20T14:05:02;27.80;80.30
45435;DHT22;31183;47.404;8.500;2023-08-20T14:07:31;27.80;80.60
45435;DHT22;31183;47.404;8.500;2023-08-20T14:09:59;27.80;80.70
45435;DHT22;31183;47.404;8.500;2023-08-20T14:12:26;27.80;81.00
45435;DHT22;31183;47.404;8.500;2023-08-20T14:14:52;27.80;80.60
45435;DHT22;31183;47.404;8.500;2023-08-20T14:17:19;27.90;79.30
45435;DHT22;31183;47.404;8.500;2023-08-20T14:19:46;27.90;79.90
45435;DHT22;31183;47.404;8.500;2023-08-20T14:22:12;27.90;80.20
45435;DHT22;31183;47.404;8.500;2023-08-20T14:24:39;27.90;80.60
45435;DHT22;31183;47.404;8.500;2023-08-20T14:27:05;27.90;80.30
45435;DHT22;31183;47.404;8.500;2023-08-20T14:29:34;27.90;80.20
45435;DHT22;31183;47.404;8.500;2023-08-20T14:32:01;27.90;80.50
45435;DHT22;31183;47.404;8.500;2023-08-20T14:34:27;27.90;80.80
45435;DHT22;31183;47.404;8.500;2023-08-20T14:36:54;27.80;80.80
45435;DHT22;31183;47.404;8.500;2023-08-20T14:39:20;27.80;81.00
45435;DHT22;31183;47.404;8.500;2023-08-20T14:41:47;27.80;81.20
45435;DHT22;31183;47.404;8.500;2023-08-20T14:44:14;27.80;80.90
45435;DHT22;31183;47.404;8.500;2023-08-20T14:46:40;27.70;80.70
45435;DHT22;31183;47.404;8.500;2023-08-20T14:49:07;27.70;81.20
45435;DHT22;31183;47.404;8.500;2023-08-20T14:51:34;27.70;81.30
45435;DHT22;31183;47.404;8.500;2023-08-20T14:54:01;27.70;81.40
45435;DHT22;31183;47.404;8.500;2023-08-20T14:56:27;27.70;81.20
45435;DHT22;31183;47.404;8.500;2023-08-20T14:58:54;27.70;81.30
45435;DHT22;31183;47.404;8.500;2023-08-20T15:01:21;27.70;81.50
45435;DHT22;31183;47.404;8.500;2023-08-20T15:03:48;27.70;81.50
45435;DHT22;31183;47.404;8.500;2023-08-20T15:06:14;27.70;81.40
45435;DHT22;31183;47.404;8.500;2023-08-20T15:08:42;27.70;81.60
45435;DHT22;31183;47.404;8.500;2023-08-20T15:11:08;27.70;81.80
45435;DHT22;31183;47.404;8.500;2023-08-20T15:13:35;27.70;81.90
45435;DHT22;31183;47.404;8.500;2023-08-20T15:16:01;27.70;81.60
45435;DHT22;31183;47.404;8.500;2023-08-20T15:18:28;27.70;81.80
45435;DHT22;31183;47.404;8.500;2023-08-20T15:20:56;27.70;81.80
45435;DHT22;31183;47.404;8.500;2023-08-20T15:23:26;27.70;81.80
45435;DHT22;31183;47.404;8.500;2023-08-20T15:25:54;27.70;81.80
45435;DHT22;31183;47.404;8.500;2023-08-20T15:28:25;27.70;81.80
45435;DHT22;31183;47.404;8.500;2023-08-20T15:30:53;27.70;81.80
45435;DHT22;31183;47.404;8.500;2023-08-20T15:33:20;27.70;81.80
45435;DHT22;31183;47.404;8.500;2023-08-20T15:35:47;27.70;81.50
45435;DHT22;31183;47.404;8.500;2023-08-20T15:38:14;27.70;81.60
45435;DHT22;31183;47.404;8.500;2023-08-20T15:40:41;27.70;81.60
45435;DHT22;31183;47.404;8.500;2023-08-20T15:43:08;27.70;81.50